Time;durP1;ratioP1;P1;durP2;ratioP2;P2;SDS_P1;SDS_P2;PMS_P1;PMS_P2;Temp;Humidity;BMP_temperature;BMP_pressure;BME280_temperature;BME280_humidity;BME280_pressure;Samples;Min_cycle;Max_cycle;Signal;HPM_P1;HPM_P2
2022/10/22 00:01:13;;;;;;;1.50;1.40;;;21.60;47.50;;;;;;5010527;28;20222;-71
2022/10/22 00:03:39;;;;;;;1.63;1.53;;;21.60;47.50;;;;;;5010032;28;20698;-63
2022/10/22 00:06:04;;;;;;;1.53;1.43;;;21.60;47.60;;;;;;5011118;28;20477;-65
2022/10/22 00:08:30;;;;;;;1.70;1.60;;;21.60;47.60;;;;;;5021589;28;20364;-70
2022/10/22 00:10:56;;;;;;;1.50;1.40;;;21.60;47.60;;;;;;5020024;28;20740;-71
2022/10/22 00:13:22;;;;;;;1.73;1.63;;;21.60;47.50;;;;;;5031165;28;21188;-70
2022/10/22 00:15:47;;;;;;;1.80;1.70;;;21.50;47.40;;;;;;5044233;28;20244;-67
2022/10/22 00:18:13;;;;;;;1.50;1.40;;;21.60;47.60;;;;;;5042494;28;22015;-71
2022/10/22 00:20:38;;;;;;;1.70;1.60;;;21.60;47.50;;;;;;5024006;28;20345;-70
2022/10/22 00:23:04;;;;;;;1.93;1.73;;;21.60;47.50;;;;;;5020264;28;20214;-71
2022/10/22 00:25:30;;;;;;;1.57;1.47;;;21.60;47.50;;;;;;5033497;28;20226;-66
2022/10/22 00:27:55;;;;;;;1.97;1.60;;;21.60;47.50;;;;;;5040045;28;20665;-68
2022/10/22 00:30:21;;;;;;;1.60;1.50;;;21.60;47.50;;;;;;5042178;28;20739;-72
2022/10/22 00:32:46;;;;;;;1.70;1.43;;;21.60;47.50;;;;;;5022540;28;20732;-64
2022/10/22 00:35:12;;;;;;;1.60;1.50;;;21.50;47.40;;;;;;5039406;28;20226;-60
2022/10/22 00:37:37;;;;;;;1.60;1.50;;;21.50;47.50;;;;;;5041004;28;20225;-70
2022/10/22 00:40:04;;;;;;;1.50;1.40;;;21.50;47.50;;;;;;5039241;28;20222;-66
2022/10/22 00:42:29;;;;;;;2.07;1.40;;;21.50;47.50;;;;;;5035363;28;20225;-66
2022/10/22 00:45:16;;;;;;;1.70;1.60;;;21.60;47.60;;;;;;5035223;28;20478;-70
2022/10/22 00:47:50;;;;;;;1.50;1.40;;;21.50;47.50;;;;;;5037795;28;20284;-69
2022/10/22 00:50:20;;;;;;;1.50;1.40;;;21.50;47.50;;;;;;5040552;28;20469;-64
2022/10/22 00:52:46;;;;;;;1.70;1.60;;;21.50;47.50;;;;;;5042015;28;20466;-67
2022/10/22 00:55:13;;;;;;;1.80;1.70;;;21.50;47.50;;;;;;5032870;28;20469;-63
2022/10/22 00:57:39;;;;;;;1.43;1.33;;;21.50;47.50;;;;;;5022702;28;20219;-68
2022/10/22 01:00:06;;;;;;;1.93;1.70;;;21.50;47.50;;;;;;5020119;28;20534;-69
2022/10/22 01:02:32;;;;;;;1.67;1.57;;;21.50;47.50;;;;;;5028140;28;20989;-68
2022/10/22 01:04:57;;;;;;;1.87;1.77;;;21.50;47.50;;;;;;5021066;28;20460;-70
2022/10/22 01:07:24;;;;;;;1.70;1.60;;;21.50;47.60;;;;;;5019495;28;20896;-64
2022/10/22 01:09:50;;;;;;;1.60;1.50;;;21.60;47.60;;;;;;5021282;28;20765;-68
2022/10/22 01:12:37;;;;;;;1.57;1.47;;;21.50;47.50;;;;;;5020855;28;20500;-68
2022/10/22 01:15:25;;;;;;;1.90;1.80;;;21.50;47.50;;;;;;5037534;28;20708;-63
2022/10/22 01:18:09;;;;;;;1.53;1.43;;;21.60;47.60;;;;;;5031514;28;20465;-65
2022/10/22 01:21:08;;;;;;;1.70;1.60;;;21.50;47.60;;;;;;5024756;28;20457;-70
2022/10/22 01:23:51;;;;;;;1.70;1.60;;;21.50;47.50;;;;;;5042592;28;20871;-70
2022/10/22 01:26:26;;;;;;;2.00;1.90;;;21.50;47.60;;;;;;5040654;28;20467;-66
2022/10/22 01:29:15;;;;;;;1.67;1.57;;;21.50;47.60;;;;;;5039054;28;20453;-70
2022/10/22 01:31:58;;;;;;;1.60;1.50;;;21.50;47.60;;;;;;5019216;28;20458;-69
2022/10/22 01:34:26;;;;;;;1.50;1.40;;;21.50;47.60;;;;;;5019895;28;20498;-69
2022/10/22 01:36:53;;;;;;;1.83;1.73;;;21.50;47.60;;;;;;5018918;28;20463;-67
2022/10/22 01:39:20;;;;;;;1.40;1.30;;;21.50;47.60;;;;;;5026594;28;20429;-71
2022/10/22 01:41:46;;;;;;;1.50;1.40;;;21.50;47.60;;;;;;5039171;28;20473;-68
2022/10/22 01:44:27;;;;;;;1.80;1.70;;;21.50;47.60;;;;;;5032217;28;22718;-66
2022/10/22 01:47:10;;;;;;;1.70;1.60;;;21.50;47.60;;;;;;5018819;28;20718;-71
2022/10/22 01:49:58;;;;;;;1.60;1.50;;;21.50;47.60;;;;;;5032209;28;20881;-70
2022/10/22 01:52:56;;;;;;;1.43;1.33;;;21.50;47.60;;;;;;5034932;28;20546;-69
2022/10/22 01:55:40;;;;;;;1.80;1.70;;;21.50;47.60;;;;;;5037753;28;21057;-71
2022/10/22 01:58:27;;;;;;;1.43;1.33;;;21.50;47.60;;;;;;5015374;28;20558;-71
2022/10/22 02:01:06;;;;;;;1.73;1.63;;;21.50;47.60;;;;;;5019781;28;20459;-68
2022/10/22 02:03:42;;;;;;;1.50;1.40;;;21.50;47.60;;;;;;5015738;28;20830;-68
2022/10/22 02:06:16;;;;;;;1.60;1.50;;;21.50;47.60;;;;;;5019901;28;20463;-69
2022/10/22 02:08:42;;;;;;;1.70;1.40;;;21.50;47.60;;;;;;5024699;28;20472;-62
2022/10/22 02:11:08;;;;;;;1.77;1.67;;;21.50;47.60;;;;;;5018210;28;20492;-69
2022/10/22 02:13:40;;;;;;;1.60;1.50;;;21.50;47.70;;;;;;5015630;28;20229;-69
2022/10/22 02:16:07;;;;;;;1.80;1.70;;;21.50;47.60;;;;;;5028518;28;20471;-68
2022/10/22 02:18:36;;;;;;;1.40;1.30;;;21.50;47.60;;;;;;5037515;28;20468;-62
2022/10/22 02:21:02;;;;;;;1.53;1.43;;;21.50;47.60;;;;;;5021883;28;20515;-68
2022/10/22 02:23:28;;;;;;;1.70;1.60;;;21.50;47.60;;;;;;5038938;28;20509;-68
2022/10/22 02:26:00;;;;;;;1.80;1.70;;;21.50;48.40;;;;;;5028851;28;20450;-71
2022/10/22 02:28:38;;;;;;;1.50;1.40;;;21.50;47.60;;;;;;5032767;28;20580;-69
2022/10/22 02:31:12;;;;;;;1.47;1.37;;;21.50;47.60;;;;;;5033899;28;20465;-68
2022/10/22 02:33:44;;;;;;;1.67;1.57;;;21.50;47.60;;;;;;5020202;28;20460;-67
2022/10/22 02:36:10;;;;;;;1.50;1.40;;;21.50;47.60;;;;;;5030914;28;20459;-70
2022/10/22 02:38:37;;;;;;;1.73;1.63;;;21.50;47.60;;;;;;5030988;28;20993;-61
2022/10/22 02:41:03;;;;;;;1.40;1.30;;;21.50;47.70;;;;;;5038661;28;20458;-67
2022/10/22 02:43:29;;;;;;;1.43;1.33;;;21.50;47.70;;;;;;5032046;28;20476;-69
2022/10/22 02:45:54;;;;;;;1.67;1.57;;;21.50;47.60;;;;;;5018404;28;20519;-67
2022/10/22 02:48:20;;;;;;;1.83;1.50;;;21.50;47.70;;;;;;5019551;28;20234;-70
2022/10/22 02:50:45;;;;;;;1.50;1.40;;;21.50;47.70;;;;;;5016918;28;20228;-68
2022/10/22 02:53:11;;;;;;;1.60;1.50;;;21.50;47.70;;;;;;5030178;28;20219;-70
2022/10/22 02:55:36;;;;;;;1.50;1.40;;;21.50;47.60;;;;;;5021737;28;20678;-69
2022/10/22 02:58:02;;;;;;;4.13;1.70;;;21.50;47.70;;;;;;5025881;28;20305;-70
2022/10/22 03:00:27;;;;;;;2.30;1.60;;;21.50;47.70;;;;;;5035153;28;20224;-64
2022/10/22 03:02:53;;;;;;;1.47;1.37;;;21.50;47.60;;;;;;5037859;28;20234;-60
2022/10/22 03:05:18;;;;;;;1.93;1.83;;;21.50;47.70;;;;;;5034480;28;20233;-65
2022/10/22 03:07:44;;;;;;;1.70;1.60;;;21.50;47.60;;;;;;5030694;28;20215;-70
2022/10/22 03:10:09;;;;;;;1.50;1.40;;;21.50;48.50;;;;;;5016973;28;20244;-67
2022/10/22 03:12:35;;;;;;;1.50;1.40;;;21.50;47.70;;;;;;5017678;28;20701;-65
2022/10/22 03:15:01;;;;;;;1.40;1.30;;;21.50;47.60;;;;;;5019018;28;20268;-69
2022/10/22 03:17:26;;;;;;;1.80;1.70;;;21.50;47.60;;;;;;5019197;28;20329;-69
2022/10/22 03:19:52;;;;;;;1.60;1.50;;;21.50;47.60;;;;;;5030059;28;20236;-70
2022/10/22 03:22:25;;;;;;;1.67;1.57;;;21.50;47.60;;;;;;5037481;28;20268;-70
2022/10/22 03:24:57;;;;;;;1.60;1.50;;;21.50;47.60;;;;;;5038896;28;20241;-62
2022/10/22 03:27:22;;;;;;;1.60;1.50;;;21.50;47.70;;;;;;5038094;28;20478;-67
2022/10/22 03:29:50;;;;;;;1.57;1.47;;;21.50;47.60;;;;;;5038387;28;20946;-70
2022/10/22 03:32:15;;;;;;;1.80;1.70;;;21.50;47.60;;;;;;5021476;28;20219;-70
2022/10/22 03:34:41;;;;;;;1.40;1.30;;;21.50;47.60;;;;;;5019297;28;20463;-66
2022/10/22 03:37:07;;;;;;;1.40;1.30;;;21.50;47.70;;;;;;5018060;28;20231;-68
2022/10/22 03:39:35;;;;;;;1.80;1.70;;;21.50;47.60;;;;;;5039714;28;20218;-70
2022/10/22 03:42:01;;;;;;;2.13;1.70;;;21.50;47.60;;;;;;5042059;28;20218;-63
2022/10/22 03:44:28;;;;;;;1.60;1.50;;;21.50;47.70;;;;;;5044708;28;20502;-66
2022/10/22 03:46:54;;;;;;;1.47;1.37;;;21.50;47.70;;;;;;5030470;28;20463;-71
2022/10/22 03:49:19;;;;;;;1.50;1.40;;;21.50;47.70;;;;;;5033560;28;20455;-63
2022/10/22 03:51:45;;;;;;;1.63;1.53;;;21.50;47.70;;;;;;5038634;28;20249;-65
2022/10/22 03:54:10;;;;;;;1.93;1.83;;;21.50;47.70;;;;;;5035431;28;20251;-70
2022/10/22 03:56:36;;;;;;;1.63;1.40;;;21.50;47.70;;;;;;5021753;28;20563;-63
2022/10/22 03:59:02;;;;;;;1.93;1.80;;;21.50;47.70;;;;;;5023683;28;20760;-69
2022/10/22 04:01:28;;;;;;;1.50;1.40;;;21.50;47.70;;;;;;5022347;28;20310;-67
2022/10/22 04:03:55;;;;;;;1.70;1.60;;;21.50;47.70;;;;;;5019151;28;20462;-68
2022/10/22 04:06:21;;;;;;;1.33;1.23;;;21.50;47.70;;;;;;5020704;28;20543;-69
2022/10/22 04:08:47;;;;;;;1.63;1.40;;;21.50;47.70;;;;;;5022177;28;20546;-69
2022/10/22 04:11:14;;;;;;;1.40;1.30;;;21.50;47.70;;;;;;5030673;28;20281;-68
2022/10/22 04:13:40;;;;;;;1.80;1.70;;;21.50;47.70;;;;;;5022543;28;20231;-66
2022/10/22 04:16:13;;;;;;;1.60;1.50;;;21.50;47.70;;;;;;5018954;28;20474;-65
2022/10/22 04:18:39;;;;;;;1.60;1.40;;;21.50;47.70;;;;;;5024027;28;20452;-63
2022/10/22 04:21:07;;;;;;;2.13;2.03;;;21.50;47.70;;;;;;5021502;28;20447;-67
2022/10/22 04:23:33;;;;;;;1.57;1.47;;;21.50;47.70;;;;;;5024382;28;20452;-70
2022/10/22 04:26:04;;;;;;;2.00;1.80;;;21.50;47.70;;;;;;5019840;28;20770;-66
2022/10/22 04:28:30;;;;;;;1.83;1.73;;;21.50;47.80;;;;;;5019486;28;20973;-68
2022/10/22 04:30:56;;;;;;;1.50;1.40;;;21.40;48.20;;;;;;5029266;28;20449;-71
2022/10/22 04:33:21;;;;;;;1.83;1.70;;;21.50;49.50;;;;;;5022326;28;20218;-72
2022/10/22 04:35:47;;;;;;;1.33;1.23;;;21.40;52.40;;;;;;5019588;28;21083;-63
2022/10/22 04:38:12;;;;;;;1.50;1.40;;;21.50;49.40;;;;;;5024857;28;20211;-67
2022/10/22 04:40:38;;;;;;;1.60;1.50;;;21.50;48.40;;;;;;5040764;28;20227;-70
2022/10/22 04:43:04;;;;;;;1.60;1.50;;;21.50;51.30;;;;;;5044099;28;20669;-69
2022/10/22 04:45:31;;;;;;;2.00;1.60;;;21.50;53.60;;;;;;5041053;28;20234;-65
2022/10/22 04:47:56;;;;;;;1.37;1.27;;;21.50;56.40;;;;;;5040164;28;20225;-68
2022/10/22 04:50:22;;;;;;;1.50;1.40;;;21.50;65.60;;;;;;5021431;28;20452;-70
2022/10/22 04:52:47;;;;;;;1.60;1.43;;;21.50;58.10;;;;;;5024714;28;20671;-67
2022/10/22 04:55:13;;;;;;;1.40;1.30;;;21.50;58.70;;;;;;5035987;28;20222;-70
2022/10/22 04:57:38;;;;;;;1.60;1.50;;;21.50;53.10;;;;;;5030620;28;20218;-70
2022/10/22 05:00:05;;;;;;;1.53;1.43;;;21.50;53.40;;;;;;5040157;28;20222;-64
2022/10/22 05:02:30;;;;;;;1.83;1.73;;;21.50;54.20;;;;;;5041557;28;20233;-67
2022/10/22 05:04:56;;;;;;;1.50;1.40;;;21.50;54.80;;;;;;5038386;28;20467;-71
2022/10/22 05:07:22;;;;;;;1.50;1.40;;;21.50;55.70;;;;;;5040944;28;20280;-70
2022/10/22 05:09:48;;;;;;;2.33;1.60;;;21.50;54.00;;;;;;5039456;28;20316;-66
2022/10/22 05:12:14;;;;;;;1.30;1.20;;;21.50;53.30;;;;;;5040388;28;20468;-68
2022/10/22 05:14:39;;;;;;;1.60;1.50;;;21.50;52.40;;;;;;5035971;28;20452;-66
2022/10/22 05:17:05;;;;;;;1.60;1.50;;;21.50;49.50;;;;;;5020847;28;20229;-69
2022/10/22 05:19:32;;;;;;;1.40;1.30;;;21.50;48.00;;;;;;5037873;28;20237;-67
2022/10/22 05:21:59;;;;;;;1.30;1.20;;;21.50;47.70;;;;;;5037290;28;20297;-63
2022/10/22 05:24:26;;;;;;;1.70;1.60;;;21.50;47.70;;;;;;5031277;28;20452;-67
2022/10/22 05:26:55;;;;;;;1.47;1.37;;;21.50;47.70;;;;;;5015849;28;20452;-70
2022/10/22 05:29:21;;;;;;;1.33;1.20;;;21.50;47.60;;;;;;5024872;28;20447;-67
2022/10/22 05:31:47;;;;;;;1.60;1.50;;;21.50;47.60;;;;;;5041146;28;20818;-69
2022/10/22 05:34:13;;;;;;;1.60;1.50;;;21.50;47.60;;;;;;5038412;28;20460;-67
2022/10/22 05:36:39;;;;;;;1.93;1.83;;;21.50;47.60;;;;;;5022484;28;20460;-69
2022/10/22 05:39:05;;;;;;;1.90;1.80;;;21.50;47.60;;;;;;5022715;28;20464;-63
2022/10/22 05:41:33;;;;;;;1.53;1.43;;;21.50;47.60;;;;;;5024602;28;20658;-66
2022/10/22 05:43:59;;;;;;;1.47;1.37;;;21.50;47.60;;;;;;5021359;28;20246;-67
2022/10/22 05:46:28;;;;;;;1.60;1.50;;;21.50;47.60;;;;;;5018862;28;20449;-62
2022/10/22 05:48:59;;;;;;;2.03;1.90;;;21.50;47.60;;;;;;5021079;28;20518;-70
2022/10/22 05:51:27;;;;;;;1.40;1.30;;;21.50;47.60;;;;;;5018817;28;20444;-60
2022/10/22 05:53:57;;;;;;;2.10;1.60;;;21.50;47.60;;;;;;5022516;28;21280;-70
2022/10/22 05:56:25;;;;;;;1.57;1.47;;;21.50;47.60;;;;;;5024530;28;20458;-67
2022/10/22 05:58:50;;;;;;;1.50;1.40;;;21.50;47.60;;;;;;5023265;28;20928;-67
2022/10/22 06:01:22;;;;;;;2.17;1.67;;;21.50;47.70;;;;;;5027473;28;20537;-69
2022/10/22 06:03:48;;;;;;;1.50;1.40;;;21.50;47.90;;;;;;5037413;28;20257;-68
2022/10/22 06:06:38;;;;;;;1.80;1.70;;;21.50;47.60;;;;;;5021020;28;20784;-70
2022/10/22 06:09:11;;;;;;;1.60;1.50;;;21.50;48.10;;;;;;5020639;28;20551;-70
2022/10/22 06:11:37;;;;;;;1.50;1.40;;;21.50;48.60;;;;;;5035783;28;20517;-70
2022/10/22 06:14:03;;;;;;;1.83;1.70;;;21.50;48.60;;;;;;5041411;28;20895;-71
2022/10/22 06:16:30;;;;;;;2.03;1.93;;;21.50;48.50;;;;;;5039891;28;20218;-71
2022/10/22 06:18:58;;;;;;;1.87;1.77;;;21.50;48.70;;;;;;5020568;28;20431;-69
2022/10/22 06:21:24;;;;;;;1.80;1.70;;;21.50;49.00;;;;;;5018468;28;20952;-72
2022/10/22 06:23:49;;;;;;;1.67;1.57;;;21.60;49.90;;;;;;5017630;28;20468;-68
2022/10/22 06:26:16;;;;;;;1.50;1.40;;;21.50;49.40;;;;;;5020392;28;20701;-69
2022/10/22 06:28:42;;;;;;;1.70;1.60;;;21.50;49.70;;;;;;5027993;28;20666;-68
2022/10/22 06:31:09;;;;;;;5.57;1.43;;;21.50;49.50;;;;;;5039790;28;20473;-65
2022/10/22 06:33:40;;;;;;;1.47;1.37;;;21.50;50.40;;;;;;5041935;28;20458;-68
2022/10/22 06:36:11;;;;;;;1.77;1.67;;;21.50;51.20;;;;;;5037397;28;20947;-67
2022/10/22 06:38:37;;;;;;;2.10;1.50;;;21.50;50.00;;;;;;5029842;28;20963;-68
2022/10/22 06:41:05;;;;;;;1.70;1.60;;;21.50;49.30;;;;;;5035120;28;20459;-70
2022/10/22 06:43:31;;;;;;;1.50;1.40;;;21.50;49.60;;;;;;5019268;28;20967;-66
2022/10/22 06:46:01;;;;;;;2.63;1.50;;;21.50;49.50;;;;;;5017347;28;20514;-69
2022/10/22 06:48:27;;;;;;;1.93;1.73;;;21.60;49.60;;;;;;5026123;28;20247;-71
2022/10/22 06:50:53;;;;;;;1.50;1.40;;;21.50;49.80;;;;;;5017444;28;20451;-68
2022/10/22 06:53:18;;;;;;;1.87;1.50;;;21.50;51.30;;;;;;5036960;28;20977;-66
2022/10/22 06:55:44;;;;;;;2.23;1.47;;;21.50;51.30;;;;;;5032283;28;20225;-66
2022/10/22 06:58:09;;;;;;;1.83;1.50;;;21.50;51.00;;;;;;5032107;28;23054;-65
2022/10/22 07:00:35;;;;;;;1.43;1.33;;;21.50;50.90;;;;;;5025509;28;20225;-64
2022/10/22 07:03:00;;;;;;;1.50;1.40;;;21.60;51.50;;;;;;5030354;28;22866;-65
2022/10/22 07:05:26;;;;;;;1.50;1.40;;;21.50;49.70;;;;;;5030914;28;20745;-68
2022/10/22 07:07:51;;;;;;;2.43;1.90;;;21.50;50.30;;;;;;5025855;28;20253;-65
2022/10/22 07:10:17;;;;;;;2.00;1.47;;;21.60;49.40;;;;;;5016233;28;20307;-64
2022/10/22 07:12:43;;;;;;;1.83;1.73;;;21.60;47.60;;;;;;5012557;28;20238;-65
2022/10/22 07:15:09;;;;;;;2.10;1.70;;;21.60;47.60;;;;;;5015180;28;20359;-70
2022/10/22 07:17:34;;;;;;;1.83;1.60;;;21.60;47.60;;;;;;5029374;28;20221;-67
2022/10/22 07:20:00;;;;;;;1.50;1.40;;;21.60;47.70;;;;;;5038173;28;20340;-67
2022/10/22 07:22:25;;;;;;;1.50;1.40;;;21.60;47.60;;;;;;5034413;28;20336;-66
2022/10/22 07:24:51;;;;;;;1.60;1.50;;;21.60;47.60;;;;;;5035222;28;20243;-69
2022/10/22 07:27:16;;;;;;;4.30;1.83;;;21.60;47.60;;;;;;5033170;28;20813;-69
2022/10/22 07:29:42;;;;;;;1.57;1.47;;;21.60;47.60;;;;;;5022177;28;20721;-70
2022/10/22 07:32:07;;;;;;;2.10;1.40;;;21.60;47.60;;;;;;5013370;28;20305;-65
2022/10/22 07:34:33;;;;;;;1.50;1.40;;;21.60;47.60;;;;;;5012933;28;20245;-68
2022/10/22 07:36:58;;;;;;;4.60;1.90;;;21.60;47.60;;;;;;5016075;28;20218;-68
2022/10/22 07:39:24;;;;;;;2.33;1.43;;;21.60;47.60;;;;;;5017995;28;20230;-66
2022/10/22 07:41:50;;;;;;;1.47;1.37;;;21.60;47.60;;;;;;5009152;28;20628;-61
2022/10/22 07:44:16;;;;;;;1.60;1.50;;;21.60;47.60;;;;;;5020779;28;20990;-66
2022/10/22 07:46:41;;;;;;;2.17;1.70;;;21.50;47.90;;;;;;5019869;28;20456;-67
2022/10/22 07:49:07;;;;;;;2.33;1.67;;;21.50;48.20;;;;;;5025155;28;20228;-70
2022/10/22 07:51:32;;;;;;;1.57;1.47;;;21.60;47.70;;;;;;5038102;28;20222;-66
2022/10/22 07:53:58;;;;;;;1.50;1.40;;;21.60;48.20;;;;;;5035471;28;20257;-67
2022/10/22 07:56:23;;;;;;;4.63;1.60;;;21.60;48.60;;;;;;5031375;28;20682;-67
2022/10/22 07:58:49;;;;;;;1.40;1.30;;;21.60;48.80;;;;;;5016672;28;20280;-64
2022/10/22 08:01:15;;;;;;;1.80;1.70;;;21.60;49.30;;;;;;5017094;28;20223;-64
2022/10/22 08:03:40;;;;;;;1.50;1.40;;;21.50;49.90;;;;;;5014274;28;20249;-68
2022/10/22 08:06:06;;;;;;;1.60;1.50;;;21.50;50.80;;;;;;5011120;28;20223;-67
2022/10/22 08:08:33;;;;;;;3.10;1.43;;;21.50;50.60;;;;;;5015548;28;20252;-60
2022/10/22 08:10:59;;;;;;;1.60;1.37;;;21.60;51.90;;;;;;5013648;28;20253;-66
2022/10/22 08:13:26;;;;;;;1.47;1.37;;;21.50;52.90;;;;;;5027180;28;20459;-66
2022/10/22 08:15:52;;;;;;;2.30;1.43;;;21.50;58.00;;;;;;5013220;28;20521;-68
2022/10/22 08:18:17;;;;;;;2.30;1.73;;;21.60;47.50;;;;;;5023908;28;20467;-68
2022/10/22 08:20:43;;;;;;;1.40;1.30;;;21.60;47.50;;;;;;5010721;28;20215;-66
2022/10/22 08:23:08;;;;;;;1.63;1.53;;;21.60;47.50;;;;;;5016260;28;20219;-71
2022/10/22 08:25:34;;;;;;;2.10;1.30;;;21.60;47.50;;;;;;5020698;28;20308;-67
2022/10/22 08:28:00;;;;;;;1.47;1.30;;;21.60;47.50;;;;;;5034292;28;20229;-68
2022/10/22 08:30:28;;;;;;;1.57;1.47;;;21.60;47.50;;;;;;5037448;28;20284;-67
2022/10/22 08:32:54;;;;;;;1.50;1.40;;;21.60;47.60;;;;;;5034467;28;20246;-68
2022/10/22 08:35:20;;;;;;;1.47;1.37;;;21.60;47.50;;;;;;5016557;28;21044;-65
2022/10/22 08:37:46;;;;;;;1.40;1.30;;;21.60;47.50;;;;;;5028624;28;20225;-65
2022/10/22 08:40:22;;;;;;;1.60;1.50;;;21.60;47.50;;;;;;5021236;28;21249;-66
2022/10/22 08:43:06;;;;;;;2.00;1.50;;;21.60;47.50;;;;;;5024277;28;20291;-65
2022/10/22 08:46:01;;;;;;;1.83;1.50;;;21.60;47.50;;;;;;5011827;28;20501;-69
2022/10/22 08:48:42;;;;;;;1.60;1.50;;;21.60;47.60;;;;;;5032345;28;20463;-64
2022/10/22 08:51:15;;;;;;;1.30;1.20;;;21.50;47.50;;;;;;5038238;28;20487;-68
2022/10/22 08:54:05;;;;;;;1.73;1.53;;;21.60;47.60;;;;;;5037226;28;20486;-60
2022/10/22 08:56:35;;;;;;;1.60;1.50;;;21.50;47.50;;;;;;5035660;28;20486;-63
2022/10/22 08:59:10;;;;;;;4.23;1.60;;;21.50;47.50;;;;;;5034715;28;21026;-64
2022/10/22 09:01:41;;;;;;;1.70;1.30;;;21.50;47.50;;;;;;5032822;28;20510;-60
2022/10/22 09:04:24;;;;;;;1.63;1.50;;;21.50;47.50;;;;;;5034888;28;20480;-63
2022/10/22 09:06:53;;;;;;;1.37;1.27;;;21.50;47.50;;;;;;5035019;28;20421;-64
2022/10/22 09:09:20;;;;;;;1.60;1.50;;;21.50;47.50;;;;;;5023606;28;20995;-63
2022/10/22 09:11:52;;;;;;;1.90;1.50;;;21.50;47.60;;;;;;5021886;28;20556;-67
2022/10/22 09:14:25;;;;;;;1.70;1.60;;;21.50;47.60;;;;;;5041827;28;20494;-64
2022/10/22 09:17:38;;;;;;;2.33;1.73;;;21.50;47.50;;;;;;5035178;28;20479;-66
2022/10/22 09:20:15;;;;;;;1.60;1.50;;;21.50;47.50;;;;;;5002222;28;20505;-64
2022/10/22 09:23:18;;;;;;;1.83;1.30;;;21.50;47.60;;;;;;5015015;28;20493;-65
2022/10/22 09:25:45;;;;;;;1.63;1.50;;;21.50;47.50;;;;;;5040234;28;20527;-62
2022/10/22 09:28:11;;;;;;;1.57;1.47;;;21.50;47.60;;;;;;5038727;28;20517;-65
2022/10/22 09:30:38;;;;;;;1.47;1.37;;;21.50;47.60;;;;;;5028914;28;21442;-66
2022/10/22 09:33:13;;;;;;;2.60;1.40;;;21.50;47.50;;;;;;5023424;28;20305;-65
2022/10/22 09:35:56;;;;;;;3.77;1.70;;;21.50;47.50;;;;;;5020177;28;20467;-65
2022/10/22 09:38:28;;;;;;;1.83;1.30;;;21.50;47.50;;;;;;5022201;28;20543;-65
2022/10/22 09:40:56;;;;;;;2.83;1.30;;;21.50;47.50;;;;;;5018075;28;20429;-63
2022/10/22 09:43:21;;;;;;;1.37;1.27;;;21.50;47.50;;;;;;5022859;28;20479;-65
2022/10/22 09:45:53;;;;;;;1.40;1.30;;;21.50;47.50;;;;;;5019103;28;20547;-65
2022/10/22 09:48:30;;;;;;;3.53;1.80;;;21.50;47.40;;;;;;5020878;28;20222;-65
2022/10/22 09:51:10;;;;;;;2.27;1.23;;;21.50;47.40;;;;;;5019844;28;20845;-64
2022/10/22 09:53:42;;;;;;;3.03;1.30;;;21.50;47.50;;;;;;5036658;28;20426;-64
2022/10/22 09:56:26;;;;;;;1.30;1.20;;;21.50;47.50;;;;;;5040078;28;20613;-61
2022/10/22 09:58:55;;;;;;;1.77;1.40;;;21.50;47.50;;;;;;5043124;28;20521;-65
2022/10/22 10:01:28;;;;;;;1.50;1.40;;;21.50;47.40;;;;;;5042231;28;20455;-66
2022/10/22 10:04:03;;;;;;;1.33;1.23;;;21.50;47.50;;;;;;5040242;28;20467;-64
2022/10/22 10:06:32;;;;;;;1.10;1.00;;;21.50;47.50;;;;;;5018875;28;20465;-65
2022/10/22 10:09:01;;;;;;;1.50;1.40;;;21.50;47.40;;;;;;5030087;28;20802;-65
2022/10/22 10:11:50;;;;;;;1.40;1.30;;;21.50;47.40;;;;;;5041570;28;20439;-62
2022/10/22 10:14:52;;;;;;;1.80;1.30;;;21.50;47.40;;;;;;5040135;28;20459;-65
2022/10/22 10:17:29;;;;;;;3.30;1.60;;;21.50;47.40;;;;;;5028502;28;20486;-65
2022/10/22 10:20:07;;;;;;;1.33;1.17;;;21.50;47.40;;;;;;5040549;28;20497;-64
2022/10/22 10:22:52;;;;;;;1.40;1.10;;;21.50;47.40;;;;;;5020834;28;20541;-64
2022/10/22 10:25:31;;;;;;;1.40;1.30;;;21.50;47.40;;;;;;5035182;28;20685;-65
2022/10/22 10:28:16;;;;;;;1.33;1.20;;;21.50;47.40;;;;;;5040460;28;20551;-64
2022/10/22 10:30:57;;;;;;;1.43;1.30;;;21.50;47.40;;;;;;5041509;28;20810;-63
2022/10/22 10:33:43;;;;;;;1.97;1.20;;;21.50;47.40;;;;;;5041723;28;20443;-64
2022/10/22 10:36:14;;;;;;;1.20;1.10;;;21.50;47.40;;;;;;5039304;28;20462;-64
2022/10/22 10:39:08;;;;;;;1.40;1.30;;;21.50;47.40;;;;;;5040469;28;20474;-65
2022/10/22 10:41:50;;;;;;;1.17;1.07;;;21.50;47.40;;;;;;5034037;28;20974;-64
2022/10/22 10:44:43;;;;;;;1.67;1.10;;;21.50;47.40;;;;;;5019962;28;20466;-63
2022/10/22 10:47:17;;;;;;;1.40;1.30;;;21.50;47.40;;;;;;5039375;28;20544;-65
2022/10/22 10:49:43;;;;;;;2.87;1.40;;;21.50;47.40;;;;;;5041829;28;20437;-64
2022/10/22 10:52:24;;;;;;;1.30;1.20;;;21.50;47.40;;;;;;5040252;28;20462;-62
2022/10/22 10:55:16;;;;;;;1.43;1.33;;;21.50;47.40;;;;;;5040971;28;20305;-65
2022/10/22 10:58:00;;;;;;;1.20;1.10;;;21.60;47.50;;;;;;5038172;28;20821;-65
2022/10/22 11:00:31;;;;;;;1.17;1.07;;;21.50;47.40;;;;;;5034211;28;20496;-61
2022/10/22 11:03:15;;;;;;;1.30;1.10;;;21.50;47.40;;;;;;5020719;28;20947;-65
2022/10/22 11:06:00;;;;;;;1.20;1.10;;;21.50;47.40;;;;;;5017835;28;20475;-65
2022/10/22 11:08:28;;;;;;;1.20;1.10;;;21.60;47.50;;;;;;5039252;28;20466;-64
2022/10/22 11:11:01;;;;;;;1.17;1.07;;;21.60;47.50;;;;;;5037021;28;20451;-62
2022/10/22 11:13:33;;;;;;;1.17;1.07;;;21.60;47.50;;;;;;5020027;28;20452;-63
2022/10/22 11:16:35;;;;;;;1.30;1.20;;;21.60;47.50;;;;;;5019942;28;20462;-62
2022/10/22 11:19:26;;;;;;;2.00;1.00;;;21.50;47.30;;;;;;5035220;28;20442;-66
2022/10/22 11:22:13;;;;;;;1.30;1.20;;;21.50;47.30;;;;;;5033091;28;20452;-64
2022/10/22 11:25:00;;;;;;;1.00;0.90;;;21.50;47.30;;;;;;5035809;28;20467;-65
2022/10/22 11:27:49;;;;;;;1.20;1.10;;;21.50;47.30;;;;;;5028073;28;20548;-65
2022/10/22 11:30:24;;;;;;;1.63;0.93;;;21.50;47.40;;;;;;5011939;28;20549;-65
2022/10/22 11:32:57;;;;;;;1.20;1.10;;;21.50;47.30;;;;;;5028760;28;21043;-64
2022/10/22 11:35:30;;;;;;;1.13;1.03;;;21.50;47.30;;;;;;5015983;28;20561;-63
2022/10/22 11:37:57;;;;;;;4.10;1.00;;;21.50;47.30;;;;;;5034900;28;20458;-65
2022/10/22 11:40:28;;;;;;;1.30;1.20;;;21.50;47.30;;;;;;5016581;28;20490;-59
2022/10/22 11:43:08;;;;;;;1.27;1.17;;;21.50;47.30;;;;;;5036638;28;20447;-68
2022/10/22 11:45:37;;;;;;;1.67;1.10;;;21.50;47.20;;;;;;5009867;28;21004;-64
2022/10/22 11:48:08;;;;;;;2.13;1.07;;;21.60;47.30;;;;;;5013434;28;20459;-67
2022/10/22 11:50:40;;;;;;;1.30;1.20;;;21.60;47.20;;;;;;5013443;28;21053;-64
2022/10/22 11:53:18;;;;;;;1.43;1.33;;;21.60;47.40;;;;;;5027160;28;20879;-64
2022/10/22 11:55:47;;;;;;;1.47;1.33;;;21.60;47.30;;;;;;5018018;28;20562;-67
2022/10/22 11:58:27;;;;;;;2.67;1.20;;;21.60;47.30;;;;;;5026948;28;20463;-67
2022/10/22 12:01:11;;;;;;;1.63;1.00;;;21.60;47.30;;;;;;5014127;28;20422;-67
2022/10/22 12:03:57;;;;;;;1.63;1.30;;;21.60;47.30;;;;;;5019606;28;20490;-61
2022/10/22 12:06:24;;;;;;;5.90;1.50;;;21.60;47.30;;;;;;5014137;28;20525;-67
2022/10/22 12:08:55;;;;;;;3.80;1.40;;;21.60;47.30;;;;;;5018510;28;20584;-66
2022/10/22 12:11:46;;;;;;;2.40;1.20;;;21.60;47.30;;;;;;5012711;28;20530;-66
2022/10/22 12:14:31;;;;;;;1.83;1.30;;;21.60;47.30;;;;;;5024391;28;20645;-66
2022/10/22 12:17:06;;;;;;;1.43;1.33;;;21.60;47.30;;;;;;5027489;28;20451;-67
2022/10/22 12:19:36;;;;;;;3.00;1.30;;;21.60;47.30;;;;;;5001478;28;20467;-66
2022/10/22 12:22:18;;;;;;;5.60;1.50;;;21.60;47.30;;;;;;5002467;28;20515;-67
2022/10/22 12:24:48;;;;;;;1.97;1.30;;;21.60;47.30;;;;;;5019317;28;20966;-67
2022/10/22 12:27:33;;;;;;;2.13;1.00;;;21.60;47.30;;;;;;5035694;28;20972;-68
2022/10/22 12:30:00;;;;;;;2.33;1.10;;;21.60;47.30;;;;;;5013987;28;20449;-66
2022/10/22 12:32:35;;;;;;;2.87;1.30;;;21.60;47.30;;;;;;5013477;28;20467;-65
2022/10/22 12:35:07;;;;;;;2.00;1.30;;;21.60;47.30;;;;;;5016052;28;20983;-61
2022/10/22 12:37:38;;;;;;;2.40;1.00;;;21.60;47.30;;;;;;5029665;28;20830;-67
2022/10/22 12:40:26;;;;;;;1.40;1.10;;;21.60;47.30;;;;;;5043288;28;20538;-67
2022/10/22 12:42:55;;;;;;;1.80;1.10;;;21.60;47.30;;;;;;5030553;28;20849;-63
2022/10/22 12:45:22;;;;;;;2.50;1.20;;;21.60;47.30;;;;;;5039682;28;20545;-67
2022/10/22 12:47:54;;;;;;;2.13;1.10;;;21.60;47.30;;;;;;5041352;28;20606;-67
2022/10/22 12:50:25;;;;;;;3.47;1.50;;;21.50;47.30;;;;;;5028175;28;20511;-66
2022/10/22 12:52:54;;;;;;;2.17;1.40;;;21.60;47.30;;;;;;5020090;28;20971;-65
2022/10/22 12:55:24;;;;;;;2.60;1.17;;;21.60;47.20;;;;;;5016868;28;20573;-68
2022/10/22 12:57:51;;;;;;;1.20;1.10;;;21.60;47.20;;;;;;5016973;28;20472;-66
2022/10/22 13:00:25;;;;;;;1.67;1.37;;;21.60;47.30;;;;;;5022388;28;20929;-62
2022/10/22 13:02:51;;;;;;;2.90;1.23;;;21.60;47.20;;;;;;5042913;28;20449;-67
2022/10/22 13:05:26;;;;;;;1.57;1.47;;;21.60;47.10;;;;;;5035899;28;20458;-64
2022/10/22 13:08:03;;;;;;;1.20;1.00;;;21.60;47.00;;;;;;5041574;28;20536;-67